sensor_id;sensor_type;location;lat;lon;timestamp;pressure;altitude;pressure_sealevel;temperature;humidity
49947;BME280;35839;48.662;13.300;2023-02-12T05:38:21;99304.78;;;2.29;100.00
49947;BME280;35839;48.662;13.300;2023-02-12T05:40:47;99310.75;;;2.31;100.00
49947;BME280;35839;48.662;13.300;2023-02-12T05:43:12;99307.56;;;2.23;100.00
49947;BME280;35839;48.662;13.300;2023-02-12T05:45:37;99309.34;;;2.21;100.00
49947;BME280;35839;48.662;13.300;2023-02-12T05:48:05;99318.72;;;2.25;100.00
49947;BME280;35839;48.662;13.300;2023-02-12T05:50:32;99313.56;;;2.23;100.00
49947;BME280;35839;48.662;13.300;2023-02-12T05:53:01;99325.22;;;2.10;100.00
49947;BME280;35839;48.662;13.300;2023-02-12T05:55:26;99325.16;;;2.11;100.00
49947;BME280;35839;48.662;13.300;2023-02-12T05:57:52;99329.38;;;2.14;100.00
49947;BME280;35839;48.662;13.300;2023-02-12T06:00:17;99334.78;;;1.80;100.00
49947;BME280;35839;48.662;13.300;2023-02-12T06:02:43;99329.06;;;1.98;100.00
49947;BME280;35839;48.662;13.300;2023-02-12T06:05:08;99333.72;;;2.14;100.00
49947;BME280;35839;48.662;13.300;2023-02-12T06:07:34;99328.84;;;2.31;100.00
49947;BME280;35839;48.662;13.300;2023-02-12T06:09:59;99333.53;;;2.20;100.00
49947;BME280;35839;48.662;13.300;2023-02-12T06:12:24;99334.63;;;2.13;100.00
49947;BME280;35839;48.662;13.300;2023-02-12T06:14:50;99339.56;;;2.19;100.00
49947;BME280;35839;48.662;13.300;2023-02-12T06:17:15;99339.97;;;2.33;100.00
49947;BME280;35839;48.662;13.300;2023-02-12T06:19:40;99338.25;;;2.34;100.00
49947;BME280;35839;48.662;13.300;2023-02-12T06:22:06;99337.44;;;2.31;100.00
49947;BME280;35839;48.662;13.300;2023-02-12T06:24:31;99336.59;;;2.31;100.00
49947;BME280;35839;48.662;13.300;2023-02-12T06:26:56;99341.06;;;2.26;100.00
49947;BME280;35839;48.662;13.300;2023-02-12T06:29:22;99341.22;;;2.21;100.00
49947;BME280;35839;48.662;13.300;2023-02-12T06:31:47;99345.53;;;2.21;100.00
49947;BME280;35839;48.662;13.300;2023-02-12T06:34:14;99343.09;;;2.16;100.00
49947;BME280;35839;48.662;13.300;2023-02-12T06:36:42;99362.19;;;2.12;100.00
49947;BME280;35839;48.662;13.300;2023-02-12T06:39:12;99363.91;;;2.11;100.00
49947;BME280;35839;48.662;13.300;2023-02-12T06:41:38;99361.41;;;2.37;100.00
49947;BME280;35839;48.662;13.300;2023-02-12T06:44:04;99365.50;;;2.42;100.00
49947;BME280;35839;48.662;13.300;2023-02-12T06:46:30;99376.06;;;2.36;100.00
49947;BME280;35839;48.662;13.300;2023-02-12T06:48:57;99384.56;;;2.13;100.00
49947;BME280;35839;48.662;13.300;2023-02-12T06:51:23;99379.66;;;2.05;100.00
49947;BME280;35839;48.662;13.300;2023-02-12T06:53:50;99391.09;;;2.25;100.00
49947;BME280;35839;48.662;13.300;2023-02-12T06:56:16;99384.03;;;2.30;100.00
49947;BME280;35839;48.662;13.300;2023-02-12T06:58:44;99391.47;;;2.39;100.00
49947;BME280;35839;48.662;13.300;2023-02-12T07:01:21;99386.13;;;2.45;100.00
49947;BME280;35839;48.662;13.300;2023-02-12T07:03:54;99382.75;;;2.43;100.00
49947;BME280;35839;48.662;13.300;2023-02-12T07:06:20;99381.94;;;2.41;100.00
49947;BME280;35839;48.662;13.300;2023-02-12T07:08:46;99382.94;;;2.37;100.00
49947;BME280;35839;48.662;13.300;2023-02-12T07:11:12;99388.78;;;2.42;100.00
49947;BME280;35839;48.662;13.300;2023-02-12T07:13:39;99395.56;;;2.46;100.00
49947;BME280;35839;48.662;13.300;2023-02-12T07:16:07;99397.53;;;2.11;100.00
49947;BME280;35839;48.662;13.300;2023-02-12T07:18:34;99398.00;;;2.24;100.00
49947;BME280;35839;48.662;13.300;2023-02-12T07:21:00;99391.09;;;2.25;100.00
49947;BME280;35839;48.662;13.300;2023-02-12T07:23:25;99397.75;;;2.32;100.00
49947;BME280;35839;48.662;13.300;2023-02-12T07:26:07;99393.38;;;2.34;100.00
49947;BME280;35839;48.662;13.300;2023-02-12T07:28:33;99388.50;;;2.25;100.00
49947;BME280;35839;48.662;13.300;2023-02-12T07:31:05;99400.31;;;2.32;100.00
49947;BME280;35839;48.662;13.300;2023-02-12T07:33:31;99394.41;;;2.28;100.00
49947;BME280;35839;48.662;13.300;2023-02-12T07:36:02;99396.34;;;2.22;100.00
49947;BME280;35839;48.662;13.300;2023-02-12T07:38:28;99398.00;;;2.24;100.00
49947;BME280;35839;48.662;13.300;2023-02-12T07:40:54;99402.13;;;2.30;100.00
49947;BME280;35839;48.662;13.300;2023-02-12T07:43:21;99396.22;;;2.26;100.00
49947;BME280;35839;48.662;13.300;2023-02-12T07:45:46;99401.59;;;2.19;100.00
49947;BME280;35839;48.662;13.300;2023-02-12T07:48:12;99408.38;;;2.23;100.00
49947;BME280;35839;48.662;13.300;2023-02-12T07:50:37;99406.44;;;2.29;100.00
49947;BME280;35839;48.662;13.300;2023-02-12T07:53:02;99403.84;;;2.29;100.00
49947;BME280;35839;48.662;13.300;2023-02-12T07:55:27;99408.09;;;2.32;100.00
49947;BME280;35839;48.662;13.300;2023-02-12T07:57:53;99408.25;;;2.26;100.00
49947;BME280;35839;48.662;13.300;2023-02-12T08:00:18;99399.53;;;2.30;100.00
49947;BME280;35839;48.662;13.300;2023-02-12T08:02:50;99393.63;;;2.53;100.00
49947;BME280;35839;48.662;13.300;2023-02-12T08:05:15;99401.13;;;2.34;100.00
49947;BME280;35839;48.662;13.300;2023-02-12T08:07:40;99397.72;;;2.34;100.00
49947;BME280;35839;48.662;13.300;2023-02-12T08:10:06;99405.19;;;2.15;100.00
49947;BME280;35839;48.662;13.300;2023-02-12T08:12:31;99400.31;;;2.32;100.00
49947;BME280;35839;48.662;13.300;2023-02-12T08:14:57;99399.09;;;2.44;100.00
49947;BME280;35839;48.662;13.300;2023-02-12T08:17:22;99402.31;;;2.50;100.00
49947;BME280;35839;48.662;13.300;2023-02-12T08:19:47;99397.84;;;2.56;100.00
49947;BME280;35839;48.662;13.300;2023-02-12T08:22:12;99397.81;;;2.57;100.00
49947;BME280;35839;48.662;13.300;2023-02-12T08:24:38;99399.19;;;2.41;100.00
49947;BME280;35839;48.662;13.300;2023-02-12T08:27:03;99397.31;;;2.46;100.00
49947;BME280;35839;48.662;13.300;2023-02-12T08:29:29;99395.81;;;2.39;100.00
49947;BME280;35839;48.662;13.300;2023-02-12T08:32:00;99400.69;;;2.48;100.00
49947;BME280;35839;48.662;13.300;2023-02-12T08:34:27;99401.28;;;2.56;100.00
49947;BME280;35839;48.662;13.300;2023-02-12T08:36:54;99407.16;;;2.61;100.00
49947;BME280;35839;48.662;13.300;2023-02-12T08:39:21;99407.47;;;2.52;100.00
49947;BME280;35839;48.662;13.300;2023-02-12T08:41:47;99407.34;;;2.55;100.00
49947;BME280;35839;48.662;13.300;2023-02-12T08:44:14;99401.41;;;2.51;100.00
49947;BME280;35839;48.662;13.300;2023-02-12T08:46:43;99402.22;;;2.53;100.00
49947;BME280;35839;48.662;13.300;2023-02-12T08:49:16;99402.31;;;2.50;100.00
49947;BME280;35839;48.662;13.300;2023-02-12T08:51:44;99410.44;;;2.66;100.00
49947;BME280;35839;48.662;13.300;2023-02-12T08:54:16;99403.69;;;2.61;100.00
49947;BME280;35839;48.662;13.300;2023-02-12T08:56:42;99412.03;;;2.70;100.00
49947;BME280;35839;48.662;13.300;2023-02-12T08:59:10;99410.34;;;2.68;100.00
49947;BME280;35839;48.662;13.300;2023-02-12T09:01:36;99413.75;;;2.70;100.00
49947;BME280;35839;48.662;13.300;2023-02-12T09:04:03;99424.41;;;2.61;100.00
49947;BME280;35839;48.662;13.300;2023-02-12T09:06:31;99416.75;;;2.58;100.00
49947;BME280;35839;48.662;13.300;2023-02-12T09:08:57;99425.53;;;2.79;100.00
49947;BME280;35839;48.662;13.300;2023-02-12T09:11:25;99428.09;;;2.80;100.00
49947;BME280;35839;48.662;13.300;2023-02-12T09:13:59;99424.41;;;2.87;100.00
49947;BME280;35839;48.662;13.300;2023-02-12T09:16:28;99421.69;;;2.90;100.00
49947;BME280;35839;48.662;13.300;2023-02-12T09:18:55;99430.78;;;3.02;100.00
49947;BME280;35839;48.662;13.300;2023-02-12T09:21:21;99430.75;;;3.04;100.00
49947;BME280;35839;48.662;13.300;2023-02-12T09:23:47;99428.19;;;3.27;100.00
49947;BME280;35839;48.662;13.300;2023-02-12T09:26:15;99434.66;;;3.15;100.00
49947;BME280;35839;48.662;13.300;2023-02-12T09:28:41;99434.16;;;3.04;100.00
49947;BME280;35839;48.662;13.300;2023-02-12T09:31:18;99429.03;;;3.03;100.00
49947;BME280;35839;48.662;13.300;2023-02-12T09:33:45;99433.66;;;3.20;100.00
49947;BME280;35839;48.662;13.300;2023-02-12T09:36:13;99437.44;;;3.09;100.00
49947;BME280;35839;48.662;13.300;2023-02-12T09:38:39;99434.25;;;3.26;100.00
49947;BME280;35839;48.662;13.300;2023-02-12T09:41:31;99436.47;;;3.12;100.00
49947;BME280;35839;48.662;13.300;2023-02-12T09:44:06;99435.78;;;3.07;100.00
49947;BME280;35839;48.662;13.300;2023-02-12T09:46:58;99442.03;;;3.26;100.00
49947;BME280;35839;48.662;13.300;2023-02-12T09:52:05;99443.13;;;3.19;100.00
49947;BME280;35839;48.662;13.300;2023-02-12T09:54:38;99453.13;;;3.05;100.00
49947;BME280;35839;48.662;13.300;2023-02-12T09:57:06;99456.88;;;3.21;100.00
49947;BME280;35839;48.662;13.300;2023-02-12T10:00:04;99456.66;;;3.27;100.00
49947;BME280;35839;48.662;13.300;2023-02-12T10:02:30;99463.84;;;3.19;100.00
49947;BME280;35839;48.662;13.300;2023-02-12T10:04:58;99450.06;;;3.19;100.00
49947;BME280;35839;48.662;13.300;2023-02-12T10:07:35;99452.72;;;3.17;100.00
49947;BME280;35839;48.662;13.300;2023-02-12T10:13:00;99461.22;;;3.69;100.00
49947;BME280;35839;48.662;13.300;2023-02-12T10:15:37;99455.94;;;3.47;100.00
49947;BME280;35839;48.662;13.300;2023-02-12T10:18:41;99456.69;;;3.51;100.00
49947;BME280;35839;48.662;13.300;2023-02-12T10:21:28;99457.81;;;3.44;100.00
49947;BME280;35839;48.662;13.300;2023-02-12T10:24:07;99458.28;;;3.55;100.00
49947;BME280;35839;48.662;13.300;2023-02-12T10:26:41;99460.63;;;3.37;100.00
49947;BME280;35839;48.662;13.300;2023-02-12T10:29:19;99454.78;;;3.56;100.00
49947;BME280;35839;48.662;13.300;2023-02-12T10:31:51;99454.00;;;3.54;100.00
49947;BME280;35839;48.662;13.300;2023-02-12T10:34:24;99457.72;;;3.70;100.00
49947;BME280;35839;48.662;13.300;2023-02-12T10:36:50;99457.16;;;3.62;100.00
49947;BME280;35839;48.662;13.300;2023-02-12T10:39:22;99464.66;;;3.70;100.00
49947;BME280;35839;48.662;13.300;2023-02-12T10:44:19;99458.28;;;3.78;100.00
49947;BME280;35839;48.662;13.300;2023-02-12T10:46:45;99455.84;;;3.97;100.00
49947;BME280;35839;48.662;13.300;2023-02-12T10:49:16;99454.50;;;4.11;100.00
49947;BME280;35839;48.662;13.300;2023-02-12T10:52:12;99458.63;;;4.15;100.00
49947;BME280;35839;48.662;13.300;2023-02-12T10:54:44;99455.78;;;4.22;100.00
49947;BME280;35839;48.662;13.300;2023-02-12T10:57:26;99455.28;;;4.35;100.00
49947;BME280;35839;48.662;13.300;2023-02-12T10:59:55;99444.41;;;4.03;100.00
49947;BME280;35839;48.662;13.300;2023-02-12T11:02:29;99453.06;;;4.26;100.00
49947;BME280;35839;48.662;13.300;2023-02-12T11:04:56;99452.88;;;4.30;100.00
49947;BME280;35839;48.662;13.300;2023-02-12T11:07:24;99452.75;;;4.33;100.00
49947;BME280;35839;48.662;13.300;2023-02-12T11:09:52;99449.56;;;4.27;100.00
49947;BME280;35839;48.662;13.300;2023-02-12T11:12:35;99448.16;;;4.18;100.00
49947;BME280;35839;48.662;13.300;2023-02-12T11:15:22;99439.72;;;4.35;100.00
49947;BME280;35839;48.662;13.300;2023-02-12T11:18:06;99440.34;;;4.41;100.00
49947;BME280;35839;48.662;13.300;2023-02-12T11:20:36;99439.59;;;4.60;100.00
49947;BME280;35839;48.662;13.300;2023-02-12T11:23:05;99437.50;;;4.48;100.00
49947;BME280;35839;48.662;13.300;2023-02-12T11:25:35;99440.19;;;4.67;100.00
49947;BME280;35839;48.662;13.300;2023-02-12T11:28:13;99441.53;;;4.55;100.00
49947;BME280;35839;48.662;13.300;2023-02-12T11:31:41;99438.88;;;4.56;100.00
49947;BME280;35839;48.662;13.300;2023-02-12T11:34:06;99435.25;;;4.60;100.00
49947;BME280;35839;48.662;13.300;2023-02-12T11:36:37;99438.75;;;4.59;100.00
49947;BME280;35839;48.662;13.300;2023-02-12T11:39:04;99434.88;;;4.70;100.00
49947;BME280;35839;48.662;13.300;2023-02-12T11:41:37;99435.41;;;4.78;100.00
49947;BME280;35839;48.662;13.300;2023-02-12T11:44:21;99434.88;;;4.70;100.00
49947;BME280;35839;48.662;13.300;2023-02-12T11:46:51;99436.97;;;4.82;100.00
49947;BME280;35839;48.662;13.300;2023-02-12T11:49:22;99434.53;;;4.77;100.00
49947;BME280;35839;48.662;13.300;2023-02-12T11:51:48;99428.78;;;4.91;100.00
49947;BME280;35839;48.662;13.300;2023-02-12T11:54:28;99429.16;;;4.82;100.00
49947;BME280;35839;48.662;13.300;2023-02-12T11:56:55;99423.00;;;4.84;100.00
49947;BME280;35839;48.662;13.300;2023-02-12T11:59:33;99420.63;;;5.00;100.00
49947;BME280;35839;48.662;13.300;2023-02-12T12:02:07;99426.19;;;5.12;100.00
49947;BME280;35839;48.662;13.300;2023-02-12T12:04:37;99422.81;;;5.10;100.00
49947;BME280;35839;48.662;13.300;2023-02-12T12:07:13;99415.41;;;5.21;100.00
49947;BME280;35839;48.662;13.300;2023-02-12T12:09:46;99411.22;;;5.37;100.00
49947;BME280;35839;48.662;13.300;2023-02-12T12:12:21;99426.22;;;5.70;100.00
49947;BME280;35839;48.662;13.300;2023-02-12T12:14:51;99419.22;;;5.91;100.00
49947;BME280;35839;48.662;13.300;2023-02-12T12:17:52;99417.03;;;5.63;100.00
49947;BME280;35839;48.662;13.300;2023-02-12T12:20:42;99413.13;;;6.11;100.00
49947;BME280;35839;48.662;13.300;2023-02-12T12:23:36;99410.72;;;6.25;100.00
49947;BME280;35839;48.662;13.300;2023-02-12T12:26:12;99402.97;;;6.24;100.00
49947;BME280;35839;48.662;13.300;2023-02-12T12:29:00;99402.91;;;6.43;100.00
49947;BME280;35839;48.662;13.300;2023-02-12T12:31:33;99403.16;;;6.02;100.00
49947;BME280;35839;48.662;13.300;2023-02-12T12:47:35;99385.13;;;6.70;100.00
49947;BME280;35839;48.662;13.300;2023-02-12T12:52:56;99388.09;;;6.45;100.00
49947;BME280;35839;48.662;13.300;2023-02-12T12:58:21;99384.81;;;6.76;100.00
49947;BME280;35839;48.662;13.300;2023-02-12T13:01:05;99386.88;;;6.69;100.00
49947;BME280;35839;48.662;13.300;2023-02-12T13:06:51;99386.69;;;6.20;100.00
49947;BME280;35839;48.662;13.300;2023-02-12T13:09:40;99389.50;;;5.97;100.00
49947;BME280;35839;48.662;13.300;2023-02-12T13:17:26;99383.19;;;5.83;100.00
49947;BME280;35839;48.662;13.300;2023-02-12T13:20:08;99379.72;;;5.64;100.00
49947;BME280;35839;48.662;13.300;2023-02-12T13:27:52;99387.97;;;5.74;100.00
49947;BME280;35839;48.662;13.300;2023-02-12T13:30:24;99383.84;;;5.30;100.00
49947;BME280;35839;48.662;13.300;2023-02-12T13:33:06;99385.66;;;5.28;100.00
49947;BME280;35839;48.662;13.300;2023-02-12T13:35:35;99385.41;;;5.34;100.00
49947;BME280;35839;48.662;13.300;2023-02-12T13:38:02;99388.50;;;5.80;100.00
49947;BME280;35839;48.662;13.300;2023-02-12T13:40:30;99378.25;;;5.96;100.00
49947;BME280;35839;48.662;13.300;2023-02-12T13:45:54;99381.03;;;5.91;100.00
49947;BME280;35839;48.662;13.300;2023-02-12T13:58:52;99378.47;;;5.73;100.00
49947;BME280;35839;48.662;13.300;2023-02-12T14:01:39;99380.63;;;5.63;100.00
49947;BME280;35839;48.662;13.300;2023-02-12T14:04:23;99372.28;;;5.94;100.00
49947;BME280;35839;48.662;13.300;2023-02-12T14:06:56;99377.53;;;5.93;100.00
49947;BME280;35839;48.662;13.300;2023-02-12T14:09:28;99384.16;;;5.62;100.00
49947;BME280;35839;48.662;13.300;2023-02-12T14:11:56;99381.78;;;5.76;100.00
49947;BME280;35839;48.662;13.300;2023-02-12T14:14:36;99384.59;;;5.72;100.00
49947;BME280;35839;48.662;13.300;2023-02-12T14:25:00;99378.81;;;5.84;100.00
49947;BME280;35839;48.662;13.300;2023-02-12T14:27:49;99375.78;;;5.93;100.00
49947;BME280;35839;48.662;13.300;2023-02-12T14:30:26;99377.13;;;5.83;100.00
49947;BME280;35839;48.662;13.300;2023-02-12T14:33:08;99374.19;;;5.53;100.00
49947;BME280;35839;48.662;13.300;2023-02-12T14:35:42;99376.22;;;5.65;100.00
49947;BME280;35839;48.662;13.300;2023-02-12T14:43:03;99373.94;;;5.38;100.00
49947;BME280;35839;48.662;13.300;2023-02-12T14:45:34;99372.06;;;5.61;100.00
49947;BME280;35839;48.662;13.300;2023-02-12T14:48:02;99376.13;;;5.47;100.00
49947;BME280;35839;48.662;13.300;2023-02-12T14:50:36;99366.66;;;5.46;100.00
49947;BME280;35839;48.662;13.300;2023-02-12T14:53:26;99369.91;;;5.12;100.00
49947;BME280;35839;48.662;13.300;2023-02-12T14:55:54;99373.31;;;5.33;100.00
49947;BME280;35839;48.662;13.300;2023-02-12T14:58:22;99376.84;;;5.51;100.00
49947;BME280;35839;48.662;13.300;2023-02-12T15:00:51;99374.59;;;5.43;100.00
49947;BME280;35839;48.662;13.300;2023-02-12T15:03:22;99376.28;;;5.44;100.00
49947;BME280;35839;48.662;13.300;2023-02-12T15:06:21;99379.13;;;5.38;100.00
49947;BME280;35839;48.662;13.300;2023-02-12T15:08:52;99372.47;;;5.33;100.00
49947;BME280;35839;48.662;13.300;2023-02-12T15:11:27;99369.25;;;5.46;100.00
49947;BME280;35839;48.662;13.300;2023-02-12T15:16:40;99374.97;;;5.15;100.00
49947;BME280;35839;48.662;13.300;2023-02-12T15:19:38;99382.50;;;5.01;100.00
49947;BME280;35839;48.662;13.300;2023-02-12T15:22:25;99383.97;;;4.88;100.00
49947;BME280;35839;48.662;13.300;2023-02-12T15:24:52;99381.75;;;4.78;100.00
49947;BME280;35839;48.662;13.300;2023-02-12T15:27:18;99383.81;;;4.70;100.00
49947;BME280;35839;48.662;13.300;2023-02-12T15:29:47;99383.63;;;4.75;100.00
49947;BME280;35839;48.662;13.300;2023-02-12T15:32:33;99382.06;;;4.71;100.00
49947;BME280;35839;48.662;13.300;2023-02-12T15:35:00;99384.91;;;4.64;100.00
49947;BME280;35839;48.662;13.300;2023-02-12T15:37:28;99384.13;;;4.62;100.00
49947;BME280;35839;48.662;13.300;2023-02-12T15:39:57;99385.94;;;4.60;100.00
49947;BME280;35839;48.662;13.300;2023-02-12T15:42:32;99380.47;;;4.46;100.00
49947;BME280;35839;48.662;13.300;2023-02-12T15:45:10;99385.03;;;4.61;100.00
49947;BME280;35839;48.662;13.300;2023-02-12T15:47:44;99376.59;;;4.56;100.00
49947;BME280;35839;48.662;13.300;2023-02-12T15:50:14;99380.69;;;4.62;100.00
49947;BME280;35839;48.662;13.300;2023-02-12T15:52:42;99376.50;;;4.37;100.00
49947;BME280;35839;48.662;13.300;2023-02-12T15:55:16;99384.53;;;4.74;100.00
49947;BME280;35839;48.662;13.300;2023-02-12T15:57:43;99386.22;;;4.75;100.00
49947;BME280;35839;48.662;13.300;2023-02-12T16:00:27;99384.66;;;4.71;100.00
49947;BME280;35839;48.662;13.300;2023-02-12T16:02:53;99379.72;;;4.64;100.00
49947;BME280;35839;48.662;13.300;2023-02-12T16:05:20;99379.97;;;4.58;100.00
49947;BME280;35839;48.662;13.300;2023-02-12T16:07:46;99378.53;;;4.51;100.00
49947;BME280;35839;48.662;13.300;2023-02-12T16:10:17;99376.31;;;4.42;100.00
49947;BME280;35839;48.662;13.300;2023-02-12T16:12:43;99389.06;;;4.48;100.00
49947;BME280;35839;48.662;13.300;2023-02-12T16:15:30;99379.34;;;4.74;100.00
49947;BME280;35839;48.662;13.300;2023-02-12T16:17:57;99381.53;;;4.62;100.00
49947;BME280;35839;48.662;13.300;2023-02-12T16:20:26;99386.28;;;4.53;100.00
49947;BME280;35839;48.662;13.300;2023-02-12T16:22:52;99382.53;;;4.38;100.00
49947;BME280;35839;48.662;13.300;2023-02-12T16:25:28;99388.03;;;4.52;100.00
49947;BME280;35839;48.662;13.300;2023-02-12T16:28:04;99388.50;;;4.40;100.00
49947;BME280;35839;48.662;13.300;2023-02-12T16:32:57;99396.50;;;4.13;100.00
49947;BME280;35839;48.662;13.300;2023-02-12T16:35:29;99395.69;;;4.11;100.00
49947;BME280;35839;48.662;13.300;2023-02-12T16:46:51;99393.06;;;4.13;100.00
49947;BME280;35839;48.662;13.300;2023-02-12T16:49:20;99392.31;;;4.09;100.00
49947;BME280;35839;48.662;13.300;2023-02-12T16:51:46;99397.69;;;4.05;100.00
49947;BME280;35839;48.662;13.300;2023-02-12T16:54:31;99402.00;;;4.06;100.00
49947;BME280;35839;48.662;13.300;2023-02-12T16:56:59;99398.28;;;3.66;100.00
49947;BME280;35839;48.662;13.300;2023-02-12T16:59:25;99397.25;;;3.71;100.00
49947;BME280;35839;48.662;13.300;2023-02-12T17:04:24;99406.16;;;3.64;100.00
49947;BME280;35839;48.662;13.300;2023-02-12T17:06:49;99406.13;;;3.88;100.00
49947;BME280;35839;48.662;13.300;2023-02-12T17:09:15;99398.47;;;4.07;100.00
49947;BME280;35839;48.662;13.300;2023-02-12T17:11:40;99408.00;;;4.06;100.00
49947;BME280;35839;48.662;13.300;2023-02-12T17:14:10;99401.66;;;3.91;100.00
49947;BME280;35839;48.662;13.300;2023-02-12T17:16:38;99401.91;;;3.85;100.00
49947;BME280;35839;48.662;13.300;2023-02-12T17:19:03;99403.25;;;3.72;100.00
49947;BME280;35839;48.662;13.300;2023-02-12T17:21:31;99408.59;;;3.91;100.00
49947;BME280;35839;48.662;13.300;2023-02-12T17:24:05;99407.34;;;4.01;100.00
49947;BME280;35839;48.662;13.300;2023-02-12T17:26:30;99404.75;;;4.01;100.00
49947;BME280;35839;48.662;13.300;2023-02-12T17:28:56;99404.84;;;3.98;100.00
49947;BME280;35839;48.662;13.300;2023-02-12T17:31:30;99405.50;;;4.03;100.00
49947;BME280;35839;48.662;13.300;2023-02-12T17:33:55;99410.81;;;4.00;100.00
49947;BME280;35839;48.662;13.300;2023-02-12T17:36:20;99413.31;;;3.79;100.00
49947;BME280;35839;48.662;13.300;2023-02-12T17:38:46;99417.69;;;3.55;100.00
49947;BME280;35839;48.662;13.300;2023-02-12T17:41:11;99416.03;;;3.29;100.00
49947;BME280;35839;48.662;13.300;2023-02-12T17:43:36;99409.78;;;3.35;100.00
49947;BME280;35839;48.662;13.300;2023-02-12T17:46:09;99419.47;;;3.05;100.00
49947;BME280;35839;48.662;13.300;2023-02-12T17:48:35;99408.72;;;2.92;100.00
49947;BME280;35839;48.662;13.300;2023-02-12T17:51:00;99413.13;;;2.88;100.00
49947;BME280;35839;48.662;13.300;2023-02-12T17:53:26;99408.63;;;2.93;100.00
49947;BME280;35839;48.662;13.300;2023-02-12T17:55:51;99411.16;;;2.97;100.00
49947;BME280;35839;48.662;13.300;2023-02-12T17:58:16;99416.19;;;3.00;100.00
49947;BME280;35839;48.662;13.300;2023-02-12T18:00:42;99412.03;;;2.95;100.00
49947;BME280;35839;48.662;13.300;2023-02-12T18:03:07;99419.75;;;2.97;100.00
49947;BME280;35839;48.662;13.300;2023-02-12T18:05:32;99416.31;;;2.97;100.00
49947;BME280;35839;48.662;13.300;2023-02-12T18:07:58;99432.22;;;3.11;100.00
49947;BME280;35839;48.662;13.300;2023-02-12T18:10:23;99420.06;;;3.13;100.00
49947;BME280;35839;48.662;13.300;2023-02-12T18:12:49;99428.47;;;3.20;100.00
49947;BME280;35839;48.662;13.300;2023-02-12T18:15:14;99420.41;;;3.27;100.00
49947;BME280;35839;48.662;13.300;2023-02-12T18:17:41;99424.28;;;3.41;100.00
49947;BME280;35839;48.662;13.300;2023-02-12T18:20:08;99421.09;;;3.32;100.00
49947;BME280;35839;48.662;13.300;2023-02-12T18:22:33;99422.53;;;3.16;100.00
49947;BME280;35839;48.662;13.300;2023-02-12T18:24:59;99421.16;;;3.31;100.00
49947;BME280;35839;48.662;13.300;2023-02-12T18:27:24;99412.22;;;3.14;100.00
49947;BME280;35839;48.662;13.300;2023-02-12T18:29:49;99415.69;;;3.15;100.00
49947;BME280;35839;48.662;13.300;2023-02-12T18:32:15;99412.88;;;3.21;100.00
49947;BME280;35839;48.662;13.300;2023-02-12T18:34:42;99411.38;;;2.89;100.00
49947;BME280;35839;48.662;13.300;2023-02-12T18:37:09;99410.44;;;2.66;100.00
49947;BME280;35839;48.662;13.300;2023-02-12T18:39:34;99414.47;;;2.48;100.00
49947;BME280;35839;48.662;13.300;2023-02-12T18:42:00;99415.56;;;2.41;100.00
49947;BME280;35839;48.662;13.300;2023-02-12T18:44:25;99425.50;;;2.53;100.00
49947;BME280;35839;48.662;13.300;2023-02-12T18:46:50;99412.38;;;2.60;100.00
49947;BME280;35839;48.662;13.300;2023-02-12T18:49:16;99407.09;;;2.63;100.00
49947;BME280;35839;48.662;13.300;2023-02-12T18:51:41;99413.06;;;2.65;100.00
49947;BME280;35839;48.662;13.300;2023-02-12T18:54:11;99420.25;;;2.82;100.00
49947;BME280;35839;48.662;13.300;2023-02-12T18:56:40;99407.69;;;2.71;100.00
49947;BME280;35839;48.662;13.300;2023-02-12T18:59:10;99409.63;;;2.64;100.00
49947;BME280;35839;48.662;13.300;2023-02-12T19:01:36;99415.47;;;2.71;100.00
49947;BME280;35839;48.662;13.300;2023-02-12T19:04:03;99409.47;;;2.69;100.00
49947;BME280;35839;48.662;13.300;2023-02-12T19:06:30;99408.94;;;2.59;100.00
49947;BME280;35839;48.662;13.300;2023-02-12T19:08:57;99415.25;;;2.50;100.00
49947;BME280;35839;48.662;13.300;2023-02-12T19:11:23;99421.41;;;2.46;100.00
49947;BME280;35839;48.662;13.300;2023-02-12T19:13:49;99416.03;;;2.26;100.00
49947;BME280;35839;48.662;13.300;2023-02-12T19:16:16;99413.50;;;2.24;100.00
49947;BME280;35839;48.662;13.300;2023-02-12T19:18:41;99417.22;;;2.16;100.00
49947;BME280;35839;48.662;13.300;2023-02-12T19:21:12;99418.03;;;2.18;100.00
49947;BME280;35839;48.662;13.300;2023-02-12T19:23:38;99411.25;;;2.14;100.00
49947;BME280;35839;48.662;13.300;2023-02-12T19:26:13;99414.25;;;2.28;100.00
49947;BME280;35839;48.662;13.300;2023-02-12T19:28:39;99409.13;;;2.26;100.00
49947;BME280;35839;48.662;13.300;2023-02-12T19:33:45;99419.91;;;2.13;100.00
49947;BME280;35839;48.662;13.300;2023-02-12T19:36:13;99416.97;;;2.23;100.00
49947;BME280;35839;48.662;13.300;2023-02-12T19:38:39;99413.69;;;2.18;100.00
49947;BME280;35839;48.662;13.300;2023-02-12T19:41:11;99421.19;;;2.26;100.00
49947;BME280;35839;48.662;13.300;2023-02-12T19:43:36;99415.84;;;2.04;100.00
49947;BME280;35839;48.662;13.300;2023-02-12T19:46:04;99412.75;;;2.21;100.00
49947;BME280;35839;48.662;13.300;2023-02-12T19:48:29;99416.41;;;2.14;100.00
49947;BME280;35839;48.662;13.300;2023-02-12T19:50:55;99419.34;;;2.31;100.00
49947;BME280;35839;48.662;13.300;2023-02-12T19:53:21;99411.75;;;2.25;100.00
49947;BME280;35839;48.662;13.300;2023-02-12T19:55:46;99411.28;;;2.40;100.00
49947;BME280;35839;48.662;13.300;2023-02-12T19:58:12;99414.06;;;2.34;100.00
49947;BME280;35839;48.662;13.300;2023-02-12T20:00:37;99419.09;;;2.10;100.00
49947;BME280;35839;48.662;13.300;2023-02-12T20:03:02;99410.31;;;2.16;100.00
49947;BME280;35839;48.662;13.300;2023-02-12T20:05:28;99422.69;;;2.33;100.00
49947;BME280;35839;48.662;13.300;2023-02-12T20:07:53;99422.06;;;2.26;100.00
49947;BME280;35839;48.662;13.300;2023-02-12T20:10:18;99412.84;;;2.18;100.00